Flight Track Log - Related Links

Times and Time Zones

All times are in EDT time to prevent confusion due to time zone crossing. See the SKW4632 flight status page for this flight to view local times or setup timezone preferences in your user account.

Time Position Orientation Groundspeed Altitude Reporting Facility
EDT Latitude Longitude Course Direction KTS MPH feet Rate Location/Type
Wed 01:26:11 PM 40.7692 -111.9978 50° Northeast 184 212 5,000  Level Salt Lake Center
Wed 01:26:59 PM 40.7453 -112.0397 233° Southwest 210 242 6,400 1,582 Climbing Salt Lake Center
Wed 01:27:42 PM 40.7739 -112.0939 305° West 263 303 7,400 1,655 Climbing Salt Lake Center
Wed 01:28:55 PM 40.8511 -112.1739 322° Northwest 299 344 9,600 1,597 Climbing Salt Lake Center
Wed 01:29:00 PM 41.0105 -112.1497 81° East  Level FlightAware Approximate
Wed 01:29:46 PM 40.9172 -112.1511 15° North 316 364 10,700  Level Salt Lake Center
Wed 01:30:00 PM 41.0667 -112.0254 90° East  Level FlightAware Approximate
Wed 01:30:48 PM 40.9942 -112.0694 39° Northeast 352 405 12,200  Level Salt Lake Center
Wed 01:31:00 PM 41.1427 -111.9235 50° Northeast  Level FlightAware Approximate
Wed 01:31:50 PM 41.0739 -111.9839 39° Northeast 362 417 13,800  Level Salt Lake Center
Wed 01:32:52 PM 41.1592 -111.9075 34° Northeast 361 415 15,400 1,500 Climbing Salt Lake Center
Wed 01:33:54 PM 41.2572 -111.9317 350° North 358 412 16,900 1,306 Climbing Salt Lake Center
Wed 01:34:56 PM 41.3550 -111.9650 346° North 362 417 18,100 1,355 Climbing Salt Lake Center
Wed 01:35:58 PM 41.4758 -112.0081 345° North 374 430 19,700 1,355 Climbing Salt Lake Center
Wed 01:37:00 PM 41.5769 -112.0428 346° North 377 434 20,900 1,113 Climbing Salt Lake Center
Wed 01:38:02 PM 41.6806 -112.0794 345° North 385 443 22,000 1,113 Climbing Salt Lake Center
Wed 01:39:04 PM 41.7850 -112.1161 345° North 390 449 23,200 1,016 Climbing Salt Lake Center
Wed 01:40:06 PM 41.8892 -112.1528 345° North 388 447 24,100 726 Climbing Salt Lake Center
Wed 01:41:08 PM 41.9964 -112.1900 346° North 397 457 24,700 768 Climbing Salt Lake Center
Wed 01:42:11 PM 42.1272 -112.2364 345° North 403 464 25,700 864 Climbing Salt Lake Center
Wed 01:43:13 PM 42.2353 -112.2758 345° North 403 464 26,500 774 Climbing Salt Lake Center
Wed 01:44:15 PM 42.3442 -112.3136 346° North 404 465 27,300 774 Climbing Salt Lake Center
Wed 01:45:17 PM 42.4517 -112.3531 345° North 404 465 28,100 774 Climbing Salt Lake Center
Wed 01:46:19 PM 42.5600 -112.3906 346° North 401 461 28,900 774 Climbing Salt Lake Center
Wed 01:47:21 PM 42.6672 -112.4286 345° North 400 460 29,700 677 Climbing Salt Lake Center
Wed 01:48:23 PM 42.7981 -112.4775 345° North 402 463 30,300 532 Climbing Salt Lake Center
Wed 01:49:25 PM 42.9028 -112.5139 346° North 405 466 30,800 435 Climbing Salt Lake Center
Wed 01:50:27 PM 43.0086 -112.5542 344° North 411 473 31,200 484 Climbing Salt Lake Center
Wed 01:51:29 PM 43.1306 -112.5994 345° North 408 470 31,800 387 Climbing Salt Lake Center
Wed 01:52:31 PM 43.2369 -112.6372 345° North 411 473 32,000 97 Climbing Salt Lake Center
Wed 01:53:33 PM 43.3617 -112.6836 345° North 415 478 32,000  Level Salt Lake Center
Wed 01:54:35 PM 43.4700 -112.7228 345° North 418 481 32,000  Level Salt Lake Center
Wed 01:55:37 PM 43.5967 -112.7706 345° North 420 483 32,000  Level Salt Lake Center
Wed 01:56:39 PM 43.7050 -112.8122 344° North 421 484 32,000  Level Salt Lake Center
Wed 01:57:41 PM 43.8311 -112.8592 345° North 420 483 32,000  Level Salt Lake Center
Wed 01:58:43 PM 43.9386 -112.8997 345° North 418 481 32,000  Level Salt Lake Center
Wed 01:59:45 PM 44.0642 -112.9475 345° North 418 481 32,000  Level Salt Lake Center
Wed 02:00:47 PM 44.1722 -112.9886 345° North 419 482 32,000  Level Salt Lake Center
Wed 02:01:49 PM 44.2772 -113.0294 344° North 412 474 32,000  Level Salt Lake Center
Wed 02:02:51 PM 44.4022 -113.0769 345° North 416 479 32,000  Level Salt Lake Center
Wed 02:03:53 PM 44.5086 -113.1172 345° North 413 475 32,000  Level Salt Lake Center
Wed 02:04:55 PM 44.6333 -113.1656 345° North 414 476 32,000  Level Salt Lake Center
Wed 02:05:58 PM 44.7389 -113.2064 345° North 412 474 32,000  Level Salt Lake Center
Wed 02:07:00 PM 44.8625 -113.2544 345° North 413 475 32,000  Level Salt Lake Center
Wed 02:08:02 PM 44.9683 -113.2956 345° North 413 475 32,000  Level Salt Lake Center
Wed 02:09:04 PM 45.0892 -113.3439 344° North 405 466 32,000  Level Salt Lake Center
Wed 02:10:06 PM 45.1925 -113.3856 344° North 405 466 32,000  Level Salt Lake Center
Wed 02:11:08 PM 45.3156 -113.4331 345° North 408 470 32,000  Level Salt Lake Center
Wed 02:12:10 PM 45.4253 -113.4781 344° North 407 468 32,000  Level Salt Lake Center
Wed 02:13:12 PM 45.5344 -113.5214 344° North 407 468 32,000 -145 Level Salt Lake Center
Wed 02:14:14 PM 45.6419 -113.5658 344° North 403 464 31,700 -1,403 Descending Salt Lake Center
Wed 02:15:16 PM 45.7517 -113.6097 344° North 406 467 29,100 -2,613 Descending Salt Lake Center
Wed 02:16:18 PM 45.8817 -113.6586 345° North 433 498 26,300 -2,613 Descending Salt Lake Center
Wed 02:17:20 PM 45.9953 -113.7067 344° North 428 493 23,700 -2,468 Descending Salt Lake Center
Wed 02:18:22 PM 46.1069 -113.7531 344° North 421 484 21,200 -2,516 Descending Salt Lake Center
Wed 02:19:24 PM 46.2303 -113.8008 345° North 414 476 18,500 -2,419 Descending Salt Lake Center
Wed 02:20:26 PM 46.3381 -113.8456 344° North 405 466 16,200 -2,419 Descending Salt Lake Center
Wed 02:21:28 PM 46.4517 -113.8919 344° North 394 453 13,500 -2,516 Descending Salt Lake Center
Wed 02:22:30 PM 46.5553 -113.9361 344° North 389 448 11,000 -1,694 Descending Salt Lake Center
Wed 02:23:32 PM 46.6539 -113.9769 344° North 333 383 10,000 -726 Descending Salt Lake Center
Wed 02:24:34 PM 46.7261 -114.0047 345° North 270 311 9,500 -1,210 Descending Salt Lake Center
Wed 02:25:36 PM 46.7917 -114.0039 360° North 222 255 7,500 -1,694 Descending Salt Lake Center
Wed 02:26:38 PM 46.8464 -114.0042 360° North 187 215 6,000 -1,645 Descending Salt Lake Center
Wed 02:27:40 PM 46.8856 -114.0392 329° Northwest 161 185 4,100 -1,306 Descending Salt Lake Center
Wed 02:28:42 PM 46.9117 -114.0847 310° West 148 170 3,300 -774 Descending Salt Lake Center

Login

Don't have an account? Register now (free) for customized features, flight alerts, and more!